BCS5571 LKMT-LKTB
Flight info
| Callsign | BCS5571 |
|---|---|
| Flight time | 0h 23m |
| Altitude | 12000 |
| Route | UPLAV |
| Aircraft | A306/H-SDE3FGHIRWY/LB1 |
Departure
| Time | 2026-05-05 13:04 |
|---|---|
| Airport | Leoš Janáček Airport Ostrava (LKMT) |
Arrival
| Time | 2026-05-05 13:27 |
|---|---|
| Airport | Brno-Tuřany Airport (LKTB) |
| Time | Latitude | Longitude | Altitude | Speed | Heading |
|---|---|---|---|---|---|
| 2026-05-05 12:31 | 49.68314 | 18.09877 | 837 ft | 0 kts | 227° |
| 2026-05-05 12:55 | 49.68313 | 18.09877 | 878 ft | 0 kts | 227° |
| 2026-05-05 12:56 | 49.68312 | 18.09874 | 878 ft | 0 kts | 227° |
| 2026-05-05 12:57 | 49.68311 | 18.09873 | 878 ft | 0 kts | 228° |
| 2026-05-05 12:57 | 49.68311 | 18.09868 | 851 ft | 0 kts | 248° |
| 2026-05-05 12:57 | 49.68311 | 18.09829 | 847 ft | 8 kts | 277° |
| 2026-05-05 12:57 | 49.68351 | 18.09772 | 838 ft | 8 kts | 8° |
| 2026-05-05 12:58 | 49.68405 | 18.09821 | 838 ft | 14 kts | 40° |
| 2026-05-05 12:58 | 49.68509 | 18.09986 | 843 ft | 26 kts | 46° |
| 2026-05-05 12:58 | 49.68633 | 18.10184 | 832 ft | 26 kts | 45° |
| 2026-05-05 12:58 | 49.68755 | 18.10381 | 832 ft | 26 kts | 47° |
| 2026-05-05 12:59 | 49.68877 | 18.10581 | 836 ft | 29 kts | 46° |
| 2026-05-05 12:59 | 49.69023 | 18.10817 | 831 ft | 30 kts | 46° |
| 2026-05-05 12:59 | 49.69165 | 18.11049 | 829 ft | 29 kts | 46° |
| 2026-05-05 13:00 | 49.69425 | 18.11469 | 827 ft | 30 kts | 47° |
| 2026-05-05 13:00 | 49.69575 | 18.11710 | 830 ft | 29 kts | 46° |
| 2026-05-05 13:01 | 49.69976 | 18.12358 | 829 ft | 26 kts | 46° |
| 2026-05-05 13:01 | 49.70095 | 18.12553 | 828 ft | 24 kts | 46° |
| 2026-05-05 13:01 | 49.70210 | 18.12738 | 828 ft | 24 kts | 46° |
| 2026-05-05 13:01 | 49.70329 | 18.12928 | 823 ft | 25 kts | 46° |
| 2026-05-05 13:02 | 49.70448 | 18.13120 | 819 ft | 24 kts | 39° |
| 2026-05-05 13:02 | 49.70538 | 18.13063 | 822 ft | 13 kts | 317° |
| 2026-05-05 13:02 | 49.70596 | 18.12978 | 826 ft | 14 kts | 316° |
| 2026-05-05 13:02 | 49.70676 | 18.12856 | 826 ft | 16 kts | 309° |
| 2026-05-05 13:03 | 49.70662 | 18.12765 | 826 ft | 9 kts | 229° |
| 2026-05-05 13:03 | 49.70538 | 18.12563 | 829 ft | 51 kts | 226° |
| 2026-05-05 13:03 | 49.70104 | 18.11862 | 828 ft | 128 kts | 227° |
| 2026-05-05 13:03 | 49.69534 | 18.10930 | 928 ft | 178 kts | 225° |
| 2026-05-05 13:04 | 49.68651 | 18.09479 | 1762 ft | 178 kts | 223° |
| 2026-05-05 13:04 | 49.67786 | 18.08075 | 2039 ft | 177 kts | 222° |
| 2026-05-05 13:04 | 49.66988 | 18.06742 | 1938 ft | 164 kts | 223° |
| 2026-05-05 13:04 | 49.66217 | 18.05533 | 1933 ft | 149 kts | 219° |
| 2026-05-05 13:05 | 49.65466 | 18.04407 | 1911 ft | 156 kts | 222° |
| 2026-05-05 13:05 | 49.64693 | 18.03213 | 1973 ft | 157 kts | 221° |
| 2026-05-05 13:05 | 49.63944 | 18.02046 | 1911 ft | 152 kts | 221° |
| 2026-05-05 13:05 | 49.63085 | 18.00739 | 2364 ft | 195 kts | 221° |
| 2026-05-05 13:06 | 49.62072 | 17.99173 | 3593 ft | 211 kts | 222° |
| 2026-05-05 13:06 | 49.61072 | 17.97597 | 5391 ft | 199 kts | 223° |
| 2026-05-05 13:06 | 49.60094 | 17.96051 | 6852 ft | 204 kts | 224° |
| 2026-05-05 13:06 | 49.59060 | 17.94418 | 7572 ft | 226 kts | 224° |
| 2026-05-05 13:07 | 49.57897 | 17.92580 | 8124 ft | 249 kts | 224° |
| 2026-05-05 13:07 | 49.56671 | 17.90632 | 9045 ft | 256 kts | 225° |
| 2026-05-05 13:07 | 49.55416 | 17.88648 | 9965 ft | 262 kts | 225° |
| 2026-05-05 13:07 | 49.54104 | 17.86576 | 10535 ft | 280 kts | 225° |
| 2026-05-05 13:08 | 49.52704 | 17.84372 | 10901 ft | 302 kts | 225° |
| 2026-05-05 13:08 | 49.51187 | 17.81983 | 11255 ft | 322 kts | 225° |
| 2026-05-05 13:08 | 49.49578 | 17.79481 | 11755 ft | 334 kts | 224° |
| 2026-05-05 13:08 | 49.47944 | 17.76953 | 11981 ft | 335 kts | 224° |
| 2026-05-05 13:09 | 49.46290 | 17.74394 | 12011 ft | 336 kts | 224° |
| 2026-05-05 13:09 | 49.44641 | 17.71851 | 12007 ft | 336 kts | 224° |
| 2026-05-05 13:09 | 49.42981 | 17.69291 | 12008 ft | 337 kts | 224° |
| 2026-05-05 13:09 | 49.41332 | 17.66745 | 12008 ft | 337 kts | 224° |
| 2026-05-05 13:10 | 49.39681 | 17.64197 | 12003 ft | 336 kts | 224° |
| 2026-05-05 13:10 | 49.38027 | 17.61651 | 12010 ft | 337 kts | 224° |
| 2026-05-05 13:10 | 49.36369 | 17.59108 | 12007 ft | 337 kts | 224° |
| 2026-05-05 13:10 | 49.34724 | 17.56587 | 12006 ft | 337 kts | 224° |
| 2026-05-05 13:11 | 49.33090 | 17.54010 | 12002 ft | 337 kts | 227° |
| 2026-05-05 13:11 | 49.31862 | 17.50995 | 12006 ft | 341 kts | 243° |
| 2026-05-05 13:11 | 49.31015 | 17.47602 | 12000 ft | 342 kts | 248° |
| 2026-05-05 13:11 | 49.30232 | 17.44151 | 12001 ft | 344 kts | 248° |
| 2026-05-05 13:12 | 49.29449 | 17.40687 | 12002 ft | 344 kts | 248° |
| 2026-05-05 13:12 | 49.28660 | 17.37232 | 12001 ft | 344 kts | 247° |
| 2026-05-05 13:12 | 49.27865 | 17.33787 | 11998 ft | 343 kts | 247° |
| 2026-05-05 13:12 | 49.27064 | 17.30340 | 11996 ft | 343 kts | 248° |
| 2026-05-05 13:13 | 49.26272 | 17.26933 | 12004 ft | 345 kts | 247° |
| 2026-05-05 13:13 | 49.25468 | 17.23487 | 11994 ft | 344 kts | 247° |
| 2026-05-05 13:13 | 49.24666 | 17.20045 | 11998 ft | 343 kts | 247° |
| 2026-05-05 13:13 | 49.23862 | 17.16605 | 11999 ft | 343 kts | 247° |
| 2026-05-05 13:14 | 49.23054 | 17.13158 | 11993 ft | 343 kts | 247° |
| 2026-05-05 13:14 | 49.22245 | 17.09720 | 11995 ft | 344 kts | 246° |
| 2026-05-05 13:14 | 49.21454 | 17.06350 | 12005 ft | 344 kts | 248° |
| 2026-05-05 13:14 | 49.20819 | 17.02804 | 11988 ft | 350 kts | 259° |
| 2026-05-05 13:15 | 49.20848 | 16.99076 | 11637 ft | 352 kts | 272° |
| 2026-05-05 13:15 | 49.21167 | 16.95359 | 11031 ft | 352 kts | 275° |
| 2026-05-05 13:15 | 49.21521 | 16.91722 | 10500 ft | 348 kts | 275° |
| 2026-05-05 13:15 | 49.21868 | 16.88079 | 9949 ft | 345 kts | 275° |
| 2026-05-05 13:16 | 49.22197 | 16.84477 | 9596 ft | 334 kts | 275° |
| 2026-05-05 13:16 | 49.22500 | 16.81132 | 9414 ft | 302 kts | 274° |
| 2026-05-05 13:16 | 49.22776 | 16.78048 | 9279 ft | 287 kts | 274° |
| 2026-05-05 13:16 | 49.23043 | 16.75039 | 9074 ft | 284 kts | 274° |
| 2026-05-05 13:17 | 49.23303 | 16.72054 | 8811 ft | 282 kts | 274° |
| 2026-05-05 13:17 | 49.23559 | 16.69081 | 8561 ft | 280 kts | 274° |
| 2026-05-05 13:17 | 49.23812 | 16.66164 | 8275 ft | 275 kts | 274° |
| 2026-05-05 13:17 | 49.24232 | 16.63285 | 7875 ft | 278 kts | 282° |
| 2026-05-05 13:18 | 49.24794 | 16.60441 | 7475 ft | 279 kts | 284° |
| 2026-05-05 13:18 | 49.25382 | 16.57600 | 7066 ft | 280 kts | 284° |
| 2026-05-05 13:18 | 49.25971 | 16.54751 | 6637 ft | 282 kts | 283° |
| 2026-05-05 13:18 | 49.26557 | 16.51892 | 6271 ft | 281 kts | 284° |
| 2026-05-05 13:19 | 49.27136 | 16.49065 | 5895 ft | 279 kts | 283° |
| 2026-05-05 13:19 | 49.27514 | 16.47169 | 5573 ft | 281 kts | 283° |
| 2026-05-05 13:19 | 49.27830 | 16.44312 | 4923 ft | 266 kts | 265° |
| 2026-05-05 13:19 | 49.27379 | 16.41698 | 4420 ft | 243 kts | 238° |
| 2026-05-05 13:20 | 49.26389 | 16.39780 | 4096 ft | 221 kts | 219° |
| 2026-05-05 13:20 | 49.24854 | 16.37867 | 3614 ft | 207 kts | 210° |
| 2026-05-05 13:20 | 49.23609 | 16.36944 | 3347 ft | 194 kts | 192° |
| 2026-05-05 13:20 | 49.22740 | 16.36717 | 3142 ft | 189 kts | 181° |
| 2026-05-05 13:21 | 49.21596 | 16.36915 | 3016 ft | 182 kts | 164° |
| 2026-05-05 13:21 | 49.20469 | 16.37660 | 2990 ft | 168 kts | 153° |
| 2026-05-05 13:21 | 49.19541 | 16.38460 | 2962 ft | 149 kts | 152° |
| 2026-05-05 13:21 | 49.18734 | 16.39257 | 2970 ft | 133 kts | 144° |
| 2026-05-05 13:22 | 49.18076 | 16.40241 | 2999 ft | 133 kts | 131° |
| 2026-05-05 13:22 | 49.17612 | 16.41472 | 2975 ft | 133 kts | 117° |
| 2026-05-05 13:22 | 49.17383 | 16.42828 | 3014 ft | 132 kts | 104° |
| 2026-05-05 13:22 | 49.17263 | 16.44240 | 3017 ft | 135 kts | 102° |
| 2026-05-05 13:23 | 49.17151 | 16.45648 | 2988 ft | 135 kts | 101° |
| 2026-05-05 13:23 | 49.17033 | 16.47081 | 2940 ft | 136 kts | 103° |
| 2026-05-05 13:23 | 49.16919 | 16.48481 | 2976 ft | 138 kts | 103° |
| 2026-05-05 13:23 | 49.16793 | 16.49910 | 2952 ft | 136 kts | 104° |
| 2026-05-05 13:24 | 49.16642 | 16.51328 | 2953 ft | 134 kts | 104° |
| 2026-05-05 13:24 | 49.16525 | 16.52743 | 2936 ft | 135 kts | 102° |
| 2026-05-05 13:24 | 49.16451 | 16.54165 | 2816 ft | 137 kts | 99° |
| 2026-05-05 13:24 | 49.16361 | 16.55622 | 2563 ft | 136 kts | 104° |
| 2026-05-05 13:25 | 49.16236 | 16.57067 | 2332 ft | 136 kts | 107° |
| 2026-05-05 13:25 | 49.16078 | 16.58483 | 2097 ft | 133 kts | 107° |
| 2026-05-05 13:25 | 49.15973 | 16.59874 | 1727 ft | 134 kts | 102° |
| 2026-05-05 13:25 | 49.15907 | 16.61327 | 1635 ft | 138 kts | 104° |
| 2026-05-05 13:26 | 49.15768 | 16.62764 | 1543 ft | 134 kts | 107° |
| 2026-05-05 13:26 | 49.15607 | 16.64128 | 1366 ft | 133 kts | 105° |
| 2026-05-05 13:26 | 49.15490 | 16.65502 | 1139 ft | 127 kts | 105° |
| 2026-05-05 13:26 | 49.15358 | 16.66794 | 954 ft | 124 kts | 103° |
| 2026-05-05 13:27 | 49.15267 | 16.67947 | 820 ft | 117 kts | 104° |
| 2026-05-05 13:27 | 49.15153 | 16.69084 | 808 ft | 93 kts | 94° |
| 2026-05-05 13:27 | 49.15089 | 16.69925 | 806 ft | 61 kts | 98° |
| 2026-05-05 13:27 | 49.15046 | 16.70417 | 804 ft | 22 kts | 97° |
| 2026-05-05 13:28 | 49.15109 | 16.70494 | 810 ft | 8 kts | 7° |
| 2026-05-05 13:28 | 49.15145 | 16.70501 | 813 ft | 3 kts | 7° |
| 2026-05-05 13:28 | 49.15185 | 16.70508 | 814 ft | 9 kts | 6° |
| 2026-05-05 13:28 | 49.15232 | 16.70443 | 814 ft | 14 kts | 284° |
| 2026-05-05 13:29 | 49.15252 | 16.70209 | 814 ft | 29 kts | 276° |
| 2026-05-05 13:29 | 49.15277 | 16.69913 | 814 ft | 28 kts | 276° |
| 2026-05-05 13:29 | 49.15301 | 16.69645 | 814 ft | 23 kts | 277° |
| 2026-05-05 13:29 | 49.15322 | 16.69410 | 814 ft | 22 kts | 279° |
| 2026-05-05 13:30 | 49.15337 | 16.69210 | 812 ft | 20 kts | 279° |
| 2026-05-05 13:30 | 49.15354 | 16.69010 | 812 ft | 19 kts | 277° |
| 2026-05-05 13:30 | 49.15370 | 16.68842 | 812 ft | 18 kts | 278° |
| 2026-05-05 13:30 | 49.15386 | 16.68661 | 812 ft | 17 kts | 277° |
| 2026-05-05 13:31 | 49.15425 | 16.68535 | 814 ft | 12 kts | 349° |
| 2026-05-05 13:31 | 49.15447 | 16.68584 | 815 ft | 4 kts | 115° |
| 2026-05-05 13:31 | 49.15436 | 16.68592 | 814 ft | 2 kts | 165° |
| 2026-05-05 13:31 | 49.15434 | 16.68591 | 814 ft | 0 kts | 176° |